createdAt,value
2019-03-24T00:00:52.492Z,19.70
2019-03-24T00:03:22.029Z,18.80
2019-03-24T00:05:51.680Z,20.00
2019-03-24T00:08:21.268Z,19.57
2019-03-24T00:10:50.813Z,19.47
2019-03-24T00:13:20.378Z,19.80
2019-03-24T00:15:49.991Z,19.77
2019-03-24T00:18:19.663Z,19.10
2019-03-24T00:20:49.206Z,21.33
2019-03-24T00:23:18.744Z,18.47
2019-03-24T00:25:48.321Z,20.13
2019-03-24T00:28:17.860Z,19.30
2019-03-24T00:30:47.976Z,20.70
2019-03-24T00:33:17.556Z,19.20
2019-03-24T00:35:47.353Z,20.27
2019-03-24T00:38:16.946Z,20.23
2019-03-24T00:40:46.591Z,20.60
2019-03-24T00:43:16.128Z,20.00
2019-03-24T00:45:45.826Z,18.63
2019-03-24T00:48:15.366Z,17.80
2019-03-24T00:50:44.950Z,20.00
2019-03-24T00:53:14.561Z,18.67
2019-03-24T00:55:44.145Z,18.43
2019-03-24T00:58:13.780Z,20.33
2019-03-24T01:00:48.946Z,19.40
2019-03-24T01:03:18.878Z,19.77
2019-03-24T01:05:48.532Z,20.90
2019-03-24T01:08:18.113Z,19.53
2019-03-24T01:10:48.030Z,18.13
2019-03-24T01:13:17.613Z,20.03
2019-03-24T01:15:48.176Z,19.93
2019-03-24T01:18:17.924Z,20.57
2019-03-24T01:20:47.450Z,19.20
2019-03-24T01:23:17.297Z,19.43
2019-03-24T01:25:46.896Z,17.50
2019-03-24T01:28:16.467Z,18.70
2019-03-24T01:30:46.003Z,18.20
2019-03-24T01:33:15.589Z,17.80
2019-03-24T01:35:45.224Z,20.10
2019-03-24T01:38:15.058Z,20.93
2019-03-24T01:40:44.842Z,20.80
2019-03-24T01:43:14.428Z,19.80
2019-03-24T01:45:43.966Z,19.73
2019-03-24T01:48:13.511Z,19.10
2019-03-24T01:50:43.509Z,19.57
2019-03-24T01:53:13.478Z,19.27
2019-03-24T01:55:43.179Z,18.47
2019-03-24T01:58:12.648Z,20.97
2019-03-24T02:00:42.228Z,19.90
2019-03-24T02:03:11.781Z,18.40
2019-03-24T02:05:41.369Z,18.50
2019-03-24T02:08:10.941Z,20.03
2019-03-24T02:10:40.495Z,19.20
2019-03-24T02:13:10.070Z,19.27
2019-03-24T02:15:39.646Z,18.90
2019-03-24T02:18:09.283Z,18.43
2019-03-24T02:20:38.866Z,20.90
2019-03-24T02:23:08.404Z,19.60
2019-03-24T02:25:37.984Z,19.93
2019-03-24T02:28:07.630Z,18.60
2019-03-24T02:30:37.212Z,20.57
2019-03-24T02:33:06.791Z,18.50
2019-03-24T02:35:36.443Z,18.13
2019-03-24T02:38:06.027Z,19.30
2019-03-24T02:40:35.620Z,19.73
2019-03-24T02:43:05.257Z,20.60
2019-03-24T02:45:34.840Z,18.20
2019-03-24T02:48:04.523Z,19.93
2019-03-24T02:50:34.072Z,19.27
2019-03-24T02:53:04.013Z,20.13
2019-03-24T02:55:33.533Z,18.17
2019-03-24T02:58:03.209Z,21.20
2019-03-24T03:00:32.728Z,18.30
2019-03-24T03:03:02.251Z,18.47
2019-03-24T03:05:31.784Z,19.07
2019-03-24T03:08:01.382Z,17.67
2019-03-24T03:10:30.951Z,19.80
2019-03-24T03:13:00.545Z,19.70
2019-03-24T03:15:30.127Z,18.83
2019-03-24T03:17:59.755Z,21.43
2019-03-24T03:20:29.342Z,20.00
2019-03-24T03:22:58.978Z,20.43
2019-03-24T03:25:28.571Z,19.07
2019-03-24T03:27:58.115Z,19.70
2019-03-24T03:30:27.648Z,19.10
2019-03-24T03:32:57.262Z,19.10
2019-03-24T03:35:27.490Z,19.90
2019-03-24T03:37:57.030Z,21.00
2019-03-24T03:40:26.908Z,19.17
2019-03-24T03:42:56.862Z,19.13
2019-03-24T03:45:30.239Z,19.80
2019-03-24T03:47:59.915Z,18.43
2019-03-24T03:50:29.489Z,19.17
2019-03-24T03:52:59.451Z,18.60
2019-03-24T03:55:29.060Z,19.00
2019-03-24T03:57:58.919Z,19.83
2019-03-24T04:00:38.200Z,20.20
2019-03-24T04:03:08.178Z,21.03
2019-03-24T04:05:37.754Z,19.10
2019-03-24T04:08:07.551Z,19.00
2019-03-24T04:10:37.147Z,21.10
2019-03-24T04:13:09.185Z,19.43
2019-03-24T04:15:38.722Z,20.90
2019-03-24T04:18:08.301Z,18.73
2019-03-24T04:20:37.965Z,19.33
2019-03-24T04:23:07.844Z,18.63
2019-03-24T04:25:37.752Z,19.10
2019-03-24T04:28:07.331Z,17.93
2019-03-24T04:30:36.991Z,19.07
2019-03-24T04:33:06.614Z,21.07
2019-03-24T04:35:36.206Z,19.80
2019-03-24T04:38:05.848Z,20.27
2019-03-24T04:40:35.348Z,19.67
2019-03-24T04:43:05.533Z,19.40
2019-03-24T04:45:35.396Z,19.27
2019-03-24T04:48:04.938Z,18.40
2019-03-24T04:50:34.482Z,19.70
2019-03-24T04:53:04.445Z,18.90
2019-03-24T04:55:33.991Z,20.87
2019-03-24T04:58:03.564Z,20.00
2019-03-24T05:00:38.010Z,20.50
2019-03-24T05:03:07.583Z,19.30
2019-03-24T05:05:37.359Z,18.70
2019-03-24T05:08:07.071Z,18.83
2019-03-24T05:10:36.626Z,18.73
2019-03-24T05:13:06.206Z,19.47
2019-03-24T05:15:35.709Z,18.77
2019-03-24T05:18:05.427Z,19.70
2019-03-24T05:20:35.008Z,18.63
2019-03-24T05:23:04.663Z,19.33
2019-03-24T05:25:34.245Z,19.27
2019-03-24T05:28:03.788Z,20.03
2019-03-24T05:30:33.420Z,18.37
2019-03-24T05:33:03.014Z,19.23
2019-03-24T05:35:32.554Z,18.80
2019-03-24T05:38:02.201Z,19.40
2019-03-24T05:40:31.746Z,20.70
2019-03-24T05:43:01.335Z,17.83
2019-03-24T05:45:30.905Z,18.43
2019-03-24T05:48:00.578Z,18.80
2019-03-24T05:50:30.160Z,18.50
2019-03-24T05:52:59.967Z,17.67
2019-03-24T05:55:29.544Z,16.43
2019-03-24T05:57:59.262Z,18.60
2019-03-24T06:00:28.847Z,18.50
2019-03-24T06:02:58.362Z,18.67
2019-03-24T06:05:28.214Z,20.60
2019-03-24T06:07:58.055Z,19.40
2019-03-24T06:10:27.643Z,18.50
2019-03-24T06:12:57.198Z,18.97
2019-03-24T06:15:26.779Z,20.80
2019-03-24T06:17:56.338Z,18.00
2019-03-24T06:20:25.918Z,19.03
2019-03-24T06:22:55.528Z,18.63
2019-03-24T06:25:25.502Z,18.90
2019-03-24T06:27:55.172Z,19.50
2019-03-24T06:30:24.750Z,17.50
2019-03-24T06:32:54.289Z,19.10
2019-03-24T06:35:23.938Z,19.20
2019-03-24T06:37:53.455Z,19.97
2019-03-24T06:40:23.028Z,19.37
2019-03-24T06:42:52.699Z,18.80
2019-03-24T06:45:28.543Z,18.70
2019-03-24T06:47:57.886Z,19.73
2019-03-24T06:50:25.353Z,20.40
2019-03-24T06:52:54.934Z,20.40
2019-03-24T06:55:24.475Z,20.07
2019-03-24T06:57:54.162Z,19.80
2019-03-24T07:00:23.686Z,21.17
2019-03-24T07:02:53.616Z,21.40
2019-03-24T07:05:23.153Z,20.37
2019-03-24T07:07:52.693Z,20.67
2019-03-24T07:10:22.282Z,20.67
2019-03-24T07:12:51.866Z,20.57
2019-03-24T07:15:21.409Z,20.20
2019-03-24T07:17:50.948Z,21.30
2019-03-24T07:20:20.626Z,19.87
2019-03-24T07:22:50.170Z,20.60
2019-03-24T07:25:19.753Z,22.20
2019-03-24T07:27:49.290Z,21.83
2019-03-24T07:30:18.900Z,21.13
2019-03-24T07:32:48.613Z,20.60
2019-03-24T07:35:18.418Z,21.23
2019-03-24T07:37:48.053Z,21.20
2019-03-24T07:40:17.699Z,21.40
2019-03-24T07:42:47.394Z,19.73
2019-03-24T07:45:17.191Z,20.93
2019-03-24T07:47:48.976Z,19.80
2019-03-24T07:50:18.075Z,21.00
2019-03-24T07:52:47.648Z,20.50
2019-03-24T07:55:17.236Z,20.17
2019-03-24T07:57:46.779Z,20.30
2019-03-24T08:00:27.999Z,20.40
2019-03-24T08:02:57.538Z,20.00
2019-03-24T08:05:27.145Z,18.50
2019-03-24T08:07:56.675Z,19.73
2019-03-24T08:10:26.223Z,19.57
2019-03-24T08:12:56.020Z,20.83
2019-03-24T08:15:25.648Z,20.53
2019-03-24T08:17:55.140Z,20.07
2019-03-24T08:20:24.821Z,20.30
2019-03-24T08:22:54.502Z,19.80
2019-03-24T08:25:24.769Z,19.07
2019-03-24T08:27:54.346Z,20.40
2019-03-24T08:30:35.342Z,19.83
2019-03-24T08:33:05.135Z,19.87
2019-03-24T08:35:34.718Z,20.30
2019-03-24T08:38:04.596Z,19.90
2019-03-24T08:40:34.329Z,19.53
2019-03-24T08:43:04.465Z,20.90
2019-03-24T08:45:34.554Z,20.50
2019-03-24T08:48:05.014Z,20.73
2019-03-24T08:50:34.634Z,20.30
2019-03-24T08:53:04.916Z,21.87
2019-03-24T08:55:34.495Z,18.40
2019-03-24T08:58:04.170Z,19.37
2019-03-24T09:00:33.709Z,18.67
2019-03-24T09:03:03.349Z,18.80
2019-03-24T09:05:33.785Z,19.30
2019-03-24T09:08:03.720Z,18.70
2019-03-24T09:10:33.283Z,19.80
2019-03-24T09:13:02.946Z,19.47
2019-03-24T09:15:32.537Z,18.93
2019-03-24T09:18:02.104Z,20.20
2019-03-24T09:20:41.202Z,19.80
2019-03-24T09:23:03.614Z,19.43
2019-03-24T09:25:33.279Z,19.10
2019-03-24T09:28:02.946Z,19.17
2019-03-24T09:30:34.333Z,18.13
2019-03-24T09:33:04.210Z,18.67
2019-03-24T09:35:33.990Z,17.80
2019-03-24T09:38:03.682Z,18.00
2019-03-24T09:40:33.732Z,18.60
2019-03-24T09:43:04.364Z,18.30
2019-03-24T09:45:34.321Z,18.50
2019-03-24T09:48:04.863Z,19.50
2019-03-24T09:50:34.494Z,16.60
2019-03-24T09:53:04.245Z,18.23
2019-03-24T09:55:33.787Z,17.33
2019-03-24T09:58:03.315Z,16.73
2019-03-24T10:00:32.859Z,15.23
2019-03-24T10:03:02.445Z,16.43
2019-03-24T10:05:32.027Z,15.60
2019-03-24T10:08:01.715Z,16.07
2019-03-24T10:10:31.342Z,15.00
2019-03-24T10:13:01.127Z,15.50
2019-03-24T10:15:30.710Z,17.00
2019-03-24T10:18:00.306Z,15.60
2019-03-24T10:20:29.853Z,14.90
2019-03-24T10:22:59.441Z,14.80
2019-03-24T10:25:28.981Z,13.40
2019-03-24T10:27:58.707Z,12.93
2019-03-24T10:30:28.708Z,10.60
2019-03-24T10:32:58.294Z,10.13
2019-03-24T10:35:27.839Z,11.73
2019-03-24T10:37:57.437Z,11.60
2019-03-24T10:40:28.938Z,11.57
2019-03-24T10:42:58.508Z,11.27
2019-03-24T10:45:28.055Z,11.60
2019-03-24T10:47:57.605Z,11.60
2019-03-24T10:50:27.282Z,10.70
2019-03-24T10:52:56.864Z,10.60
2019-03-24T10:55:26.409Z,9.53
2019-03-24T10:57:55.982Z,8.63
2019-03-24T11:00:42.346Z,9.47
2019-03-24T11:03:12.535Z,8.70
2019-03-24T11:05:42.120Z,7.27
2019-03-24T11:08:11.691Z,7.97
2019-03-24T11:10:41.733Z,9.90
2019-03-24T11:13:11.326Z,7.53
2019-03-24T11:15:40.904Z,8.07
2019-03-24T11:18:10.546Z,7.90
2019-03-24T11:20:40.127Z,6.93
2019-03-24T11:23:09.724Z,7.53
2019-03-24T11:25:39.285Z,8.50
2019-03-24T11:28:08.833Z,8.83
2019-03-24T11:30:38.767Z,7.60
2019-03-24T11:33:08.308Z,8.20
2019-03-24T11:35:37.875Z,8.10
2019-03-24T11:38:07.409Z,7.83
2019-03-24T11:40:37.081Z,7.77
2019-03-24T11:43:06.787Z,6.87
2019-03-24T11:45:36.418Z,6.67
2019-03-24T11:48:06.220Z,6.83
2019-03-24T11:50:35.860Z,7.20
2019-03-24T11:53:05.446Z,7.20
2019-03-24T11:55:35.037Z,7.10
2019-03-24T11:58:05.898Z,7.57
2019-03-24T12:00:38.430Z,7.67
2019-03-24T12:03:08.103Z,7.20
2019-03-24T12:05:38.152Z,6.43
2019-03-24T12:08:08.040Z,7.70
2019-03-24T12:10:38.062Z,6.47
2019-03-24T12:13:07.645Z,6.50
2019-03-24T12:15:37.418Z,6.50
2019-03-24T12:18:07.172Z,6.77
2019-03-24T12:20:36.758Z,7.20
2019-03-24T12:23:06.403Z,6.50
2019-03-24T12:25:35.982Z,7.70
2019-03-24T12:28:05.683Z,6.20
2019-03-24T12:30:35.277Z,7.47
2019-03-24T12:33:05.019Z,7.33
2019-03-24T12:35:34.609Z,7.77
2019-03-24T12:38:04.701Z,8.00
2019-03-24T12:40:34.292Z,7.40
2019-03-24T12:43:03.892Z,7.43
2019-03-24T12:45:34.128Z,8.63
2019-03-24T12:48:03.711Z,7.33
2019-03-24T12:50:33.262Z,7.90
2019-03-24T12:53:02.778Z,7.90
2019-03-24T12:55:32.373Z,7.90
2019-03-24T12:58:02.020Z,7.67
2019-03-24T13:00:41.374Z,7.87
2019-03-24T13:03:11.129Z,8.20
2019-03-24T13:05:40.877Z,8.80
2019-03-24T13:08:15.071Z,9.00
2019-03-24T13:10:46.029Z,8.00
2019-03-24T13:13:15.497Z,9.37
2019-03-24T13:15:45.421Z,8.37
2019-03-24T13:18:15.380Z,9.40
2019-03-24T13:20:45.164Z,7.93
2019-03-24T13:23:14.805Z,7.60
2019-03-24T13:25:44.380Z,7.40
2019-03-24T13:28:13.931Z,7.40
2019-03-24T13:30:44.468Z,7.50
2019-03-24T13:33:14.014Z,7.27
2019-03-24T13:35:43.605Z,7.47
2019-03-24T13:38:13.079Z,7.10
2019-03-24T13:40:42.661Z,7.07
2019-03-24T13:43:12.191Z,6.90
2019-03-24T13:45:41.806Z,7.27
2019-03-24T13:48:11.501Z,7.40
2019-03-24T13:50:41.043Z,5.60
2019-03-24T13:53:10.743Z,7.07
2019-03-24T13:55:40.371Z,8.80
2019-03-24T13:58:12.096Z,6.07
2019-03-24T14:00:41.328Z,8.20
2019-03-24T14:03:10.969Z,8.03
2019-03-24T14:05:40.889Z,6.30
2019-03-24T14:08:10.427Z,6.23
2019-03-24T14:10:39.971Z,6.80
2019-03-24T14:13:09.547Z,5.97
2019-03-24T14:15:39.130Z,6.20
2019-03-24T14:18:09.019Z,6.10
2019-03-24T14:20:43.456Z,6.30
2019-03-24T14:23:09.895Z,5.37
2019-03-24T14:25:39.478Z,5.27
2019-03-24T14:28:09.066Z,6.53
2019-03-24T14:30:43.227Z,5.70
2019-03-24T14:33:12.953Z,6.63
2019-03-24T14:35:42.634Z,6.10
2019-03-24T14:38:12.175Z,5.83
2019-03-24T14:40:41.760Z,6.57
2019-03-24T14:43:11.343Z,5.60
2019-03-24T14:45:40.926Z,5.90
2019-03-24T14:48:10.603Z,6.40
2019-03-24T14:50:40.161Z,6.27
2019-03-24T14:53:09.761Z,6.10
2019-03-24T14:55:39.458Z,5.80
2019-03-24T14:58:09.057Z,5.80
2019-03-24T15:00:40.677Z,7.10
2019-03-24T15:03:10.428Z,7.20
2019-03-24T15:05:40.033Z,6.63
2019-03-24T15:08:10.326Z,6.83
2019-03-24T15:10:39.911Z,6.93
2019-03-24T15:13:09.561Z,7.20
2019-03-24T15:15:39.163Z,6.10
2019-03-24T15:18:08.749Z,6.70
2019-03-24T15:20:38.337Z,6.30
2019-03-24T15:23:07.926Z,7.07
2019-03-24T15:25:37.470Z,6.20
2019-03-24T15:28:07.052Z,6.10
2019-03-24T15:30:36.593Z,7.87
2019-03-24T15:33:06.235Z,8.90
2019-03-24T15:35:35.808Z,7.80
2019-03-24T15:38:08.527Z,8.03
2019-03-24T15:40:36.987Z,7.87
2019-03-24T15:43:06.566Z,6.67
2019-03-24T15:45:36.144Z,6.17
2019-03-24T15:48:05.756Z,6.53
2019-03-24T15:50:35.296Z,6.03
2019-03-24T15:53:04.876Z,6.57
2019-03-24T15:55:34.582Z,6.43
2019-03-24T15:58:04.650Z,6.13
2019-03-24T16:00:48.470Z,7.57
2019-03-24T16:03:18.460Z,8.40
2019-03-24T16:05:48.212Z,8.00
2019-03-24T16:08:17.891Z,8.93
2019-03-24T16:10:47.431Z,8.47
2019-03-24T16:13:17.112Z,8.80
2019-03-24T16:15:46.647Z,8.43
2019-03-24T16:18:16.425Z,9.40
2019-03-24T16:20:46.010Z,7.93
2019-03-24T16:23:15.590Z,9.10
2019-03-24T16:25:45.154Z,8.30
2019-03-24T16:28:15.070Z,8.57
2019-03-24T16:30:44.703Z,7.60
2019-03-24T16:33:14.354Z,7.83
2019-03-24T16:35:43.940Z,7.93
2019-03-24T16:38:13.518Z,7.50
2019-03-24T16:40:43.180Z,8.63
2019-03-24T16:43:12.643Z,7.70
2019-03-24T16:45:42.214Z,7.77
2019-03-24T16:48:12.148Z,9.37
2019-03-24T16:50:41.721Z,7.40
2019-03-24T16:53:11.305Z,8.30
2019-03-24T16:55:40.838Z,7.60
2019-03-24T16:58:10.445Z,8.43
2019-03-24T17:00:39.983Z,8.03
2019-03-24T17:03:09.523Z,9.00
2019-03-24T17:05:39.131Z,9.60
2019-03-24T17:08:08.727Z,10.00
2019-03-24T17:10:38.358Z,8.70
2019-03-24T17:13:07.932Z,9.53
2019-03-24T17:15:37.478Z,9.20
2019-03-24T17:18:07.430Z,9.97
2019-03-24T17:20:36.961Z,9.50
2019-03-24T17:23:06.670Z,10.37
2019-03-24T17:25:36.377Z,11.20
2019-03-24T17:28:06.148Z,10.57
2019-03-24T17:30:35.797Z,10.30
2019-03-24T17:33:05.383Z,11.67
2019-03-24T17:35:34.988Z,10.63
2019-03-24T17:38:04.869Z,12.13
2019-03-24T17:40:38.826Z,12.30
2019-03-24T17:43:06.013Z,11.10
2019-03-24T17:45:35.656Z,11.63
2019-03-24T17:48:05.279Z,12.40
2019-03-24T17:50:34.856Z,12.67
2019-03-24T17:53:06.639Z,12.10
2019-03-24T17:55:36.111Z,13.27
2019-03-24T17:58:05.661Z,12.63
2019-03-24T18:00:44.192Z,11.50
2019-03-24T18:03:13.839Z,12.30
2019-03-24T18:05:43.385Z,12.20
2019-03-24T18:08:13.065Z,12.20
2019-03-24T18:10:42.953Z,12.93
2019-03-24T18:13:12.808Z,13.40
2019-03-24T18:15:42.356Z,13.20
2019-03-24T18:18:11.934Z,12.67
2019-03-24T18:20:41.486Z,13.87
2019-03-24T18:23:10.993Z,14.67
2019-03-24T18:25:40.537Z,14.20
2019-03-24T18:28:10.131Z,14.10
2019-03-24T18:30:39.682Z,14.40
2019-03-24T18:33:09.346Z,14.53
2019-03-24T18:35:38.947Z,14.17
2019-03-24T18:38:08.817Z,13.97
2019-03-24T18:40:38.593Z,13.93
2019-03-24T18:43:08.202Z,14.47
2019-03-24T18:45:37.747Z,14.80
2019-03-24T18:48:08.011Z,14.27
2019-03-24T18:50:37.612Z,15.27
2019-03-24T18:53:07.258Z,14.67
2019-03-24T18:55:36.806Z,15.20
2019-03-24T18:58:06.573Z,14.50
2019-03-24T19:00:36.174Z,15.27
2019-03-24T19:03:05.874Z,13.70
2019-03-24T19:05:35.421Z,14.80
2019-03-24T19:08:05.227Z,15.00
2019-03-24T19:10:34.854Z,14.90
2019-03-24T19:13:04.449Z,14.87
2019-03-24T19:15:34.069Z,13.73
2019-03-24T19:18:03.718Z,14.10
2019-03-24T19:20:33.304Z,14.90
2019-03-24T19:23:02.865Z,15.93
2019-03-24T19:25:32.582Z,15.00
2019-03-24T19:28:02.194Z,15.40
2019-03-24T19:30:38.555Z,15.57
2019-03-24T19:33:08.452Z,16.73
2019-03-24T19:35:38.015Z,14.97
2019-03-24T19:38:07.711Z,14.60
2019-03-24T19:40:37.280Z,14.60
2019-03-24T19:43:06.879Z,15.50
2019-03-24T19:45:36.489Z,15.03
2019-03-24T19:48:06.421Z,15.40
2019-03-24T19:50:36.006Z,16.10
2019-03-24T19:53:05.798Z,16.37
2019-03-24T19:55:35.379Z,15.67
2019-03-24T19:58:05.112Z,15.27
2019-03-24T20:00:34.660Z,17.00
2019-03-24T20:03:04.479Z,16.77
2019-03-24T20:05:33.950Z,15.13
2019-03-24T20:08:03.498Z,16.20
2019-03-24T20:10:33.197Z,16.43
2019-03-24T20:13:02.792Z,16.50
2019-03-24T20:15:32.437Z,16.87
2019-03-24T20:18:02.081Z,15.30
2019-03-24T20:20:31.831Z,17.20
2019-03-24T20:23:01.461Z,16.50
2019-03-24T20:25:31.146Z,16.70
2019-03-24T20:28:01.046Z,17.93
2019-03-24T20:30:30.637Z,17.60
2019-03-24T20:33:00.187Z,16.70
2019-03-24T20:35:29.799Z,16.80
2019-03-24T20:37:59.464Z,18.00
2019-03-24T20:40:29.016Z,17.17
2019-03-24T20:42:58.943Z,20.47
2019-03-24T20:45:28.634Z,17.40
2019-03-24T20:47:58.254Z,18.80
2019-03-24T20:50:28.033Z,17.73
2019-03-24T20:53:03.985Z,17.67
2019-03-24T20:55:28.896Z,17.97
2019-03-24T20:57:59.453Z,18.23
2019-03-24T21:00:33.693Z,18.63
2019-03-24T21:03:03.202Z,17.70
2019-03-24T21:05:32.846Z,17.70
2019-03-24T21:08:02.393Z,16.90
2019-03-24T21:10:31.937Z,18.73
2019-03-24T21:13:01.517Z,17.90
2019-03-24T21:15:31.075Z,18.63
2019-03-24T21:18:00.785Z,17.90
2019-03-24T21:20:30.509Z,18.80
2019-03-24T21:23:00.059Z,17.40
2019-03-24T21:25:29.772Z,19.00
2019-03-24T21:27:59.358Z,17.80
2019-03-24T21:30:39.833Z,17.43
2019-03-24T21:33:09.524Z,18.53
2019-03-24T21:35:39.168Z,19.03
2019-03-24T21:38:08.759Z,17.20
2019-03-24T21:40:38.387Z,17.53
2019-03-24T21:43:07.990Z,17.10
2019-03-24T21:45:37.537Z,18.20
2019-03-24T21:48:07.176Z,18.27
2019-03-24T21:50:36.963Z,18.10
2019-03-24T21:53:07.160Z,18.23
2019-03-24T21:55:36.778Z,17.50
2019-03-24T21:58:06.797Z,18.10
2019-03-24T22:00:37.378Z,17.80
2019-03-24T22:03:07.747Z,17.10
2019-03-24T22:05:37.515Z,16.90
2019-03-24T22:08:07.840Z,17.20
2019-03-24T22:10:37.642Z,17.83
2019-03-24T22:13:07.468Z,17.10
2019-03-24T22:15:37.057Z,16.23
2019-03-24T22:18:07.205Z,17.07
2019-03-24T22:20:48.255Z,16.83
2019-03-24T22:23:08.052Z,17.43
2019-03-24T22:25:37.697Z,17.40
2019-03-24T22:28:07.295Z,15.80
2019-03-24T22:30:36.846Z,16.97
2019-03-24T22:33:06.505Z,17.13
2019-03-24T22:35:36.041Z,16.17
2019-03-24T22:38:06.045Z,18.33
2019-03-24T22:40:35.597Z,17.07
2019-03-24T22:43:05.370Z,15.73
2019-03-24T22:45:34.949Z,17.63
2019-03-24T22:48:05.009Z,18.27
2019-03-24T22:50:34.920Z,17.60
2019-03-24T22:53:04.544Z,16.67
2019-03-24T22:55:34.298Z,17.60
2019-03-24T22:58:03.859Z,16.90
2019-03-24T23:01:01.710Z,17.70
2019-03-24T23:03:31.264Z,19.97
2019-03-24T23:06:01.043Z,19.53
2019-03-24T23:08:30.588Z,18.73
2019-03-24T23:11:00.550Z,18.03
2019-03-24T23:13:30.028Z,17.57
2019-03-24T23:15:59.577Z,17.30
2019-03-24T23:18:29.215Z,16.40
2019-03-24T23:20:58.873Z,18.10
2019-03-24T23:23:28.350Z,17.80
2019-03-24T23:25:57.951Z,16.90
2019-03-24T23:28:27.542Z,18.63
2019-03-24T23:30:57.084Z,18.23
2019-03-24T23:33:26.629Z,18.63
2019-03-24T23:35:56.142Z,17.87
2019-03-24T23:38:25.745Z,18.70
2019-03-24T23:40:55.433Z,18.90
2019-03-24T23:43:24.976Z,19.53
2019-03-24T23:45:54.566Z,17.83
2019-03-24T23:48:24.150Z,17.27
2019-03-24T23:50:53.822Z,17.07
2019-03-24T23:53:23.411Z,17.07
2019-03-24T23:55:53.098Z,17.90
2019-03-24T23:58:22.746Z,18.93
